Time;durP1;ratioP1;P1;durP2;ratioP2;P2;SDS_P1;SDS_P2;PMS_P1;PMS_P2;Temp;Humidity;BMP_temperature;BMP_pressure;BME280_temperature;BME280_humidity;BME280_pressure;Samples;Min_cycle;Max_cycle;Signal;HPM_P1;HPM_P2
2023/03/15 00:01:56;;;;;;;2.60;2.40;;;4.50;99.90;;;;;;5046281;28;20219;-85
2023/03/15 00:04:24;;;;;;;4.60;2.93;;;4.40;99.90;;;;;;5047448;28;20173;-85
2023/03/15 00:06:50;;;;;;;3.07;2.77;;;4.30;99.90;;;;;;5037840;28;20189;-84
2023/03/15 00:09:16;;;;;;;3.60;2.97;;;4.40;99.90;;;;;;5044574;28;20643;-86
2023/03/15 00:11:42;;;;;;;2.70;2.47;;;4.50;99.90;;;;;;5055010;28;20216;-85
2023/03/15 00:14:08;;;;;;;3.63;2.23;;;4.50;99.90;;;;;;5049284;28;20212;-84
2023/03/15 00:16:33;;;;;;;5.67;2.80;;;4.60;99.90;;;;;;5048403;28;20164;-84
2023/03/15 00:18:59;;;;;;;2.87;2.40;;;4.60;99.90;;;;;;5049456;28;20185;-85
2023/03/15 00:21:25;;;;;;;3.57;2.63;;;4.60;99.90;;;;;;5048765;28;20204;-85
2023/03/15 00:23:51;;;;;;;5.33;2.73;;;4.70;99.90;;;;;;5051163;28;20205;-85
2023/03/15 00:26:17;;;;;;;3.57;2.87;;;4.80;99.90;;;;;;5068488;28;20172;-83
2023/03/15 00:28:42;;;;;;;3.27;2.13;;;4.70;99.90;;;;;;5069032;28;20172;-85
2023/03/15 00:31:12;;;;;;;3.17;2.60;;;4.60;99.90;;;;;;5068724;28;20729;-83
2023/03/15 00:33:38;;;;;;;2.93;2.43;;;4.40;99.90;;;;;;5068957;28;20199;-85
2023/03/15 00:36:06;;;;;;;3.83;2.30;;;4.40;99.90;;;;;;5068679;28;20177;-85
2023/03/15 00:38:33;;;;;;;3.57;2.10;;;4.30;99.90;;;;;;5070138;28;20180;-87
2023/03/15 00:41:04;;;;;;;3.13;2.30;;;4.20;99.90;;;;;;5033249;28;20264;-84
2023/03/15 00:43:30;;;;;;;4.90;2.50;;;4.10;99.90;;;;;;5032952;28;20166;-85
2023/03/15 00:45:57;;;;;;;3.23;2.20;;;4.10;99.90;;;;;;5032119;28;20182;-86
2023/03/15 00:48:23;;;;;;;2.93;2.00;;;4.00;99.90;;;;;;5031122;28;20255;-85
2023/03/15 00:50:48;;;;;;;2.47;2.20;;;4.00;99.90;;;;;;5031526;28;20233;-85
2023/03/15 00:53:14;;;;;;;4.37;2.53;;;4.00;99.90;;;;;;5030970;28;20241;-85
2023/03/15 00:55:41;;;;;;;4.23;1.90;;;4.10;99.90;;;;;;5042409;28;20215;-86
2023/03/15 00:58:07;;;;;;;3.07;2.20;;;4.00;99.90;;;;;;5059074;28;20204;-87
2023/03/15 01:00:32;;;;;;;2.40;2.10;;;4.00;99.90;;;;;;5043803;28;20198;-85
2023/03/15 01:02:58;;;;;;;2.20;2.00;;;3.90;99.90;;;;;;5051947;28;20177;-85
2023/03/15 01:05:25;;;;;;;2.20;2.00;;;3.90;99.90;;;;;;5067289;28;20256;-85
2023/03/15 01:07:51;;;;;;;3.47;2.20;;;3.90;99.90;;;;;;5051532;28;20205;-84
2023/03/15 01:10:18;;;;;;;1.90;1.80;;;3.80;99.90;;;;;;5051970;28;20204;-86
2023/03/15 01:12:44;;;;;;;2.23;2.03;;;3.80;99.90;;;;;;5069675;28;20181;-86
2023/03/15 01:15:13;;;;;;;2.10;1.90;;;3.70;99.90;;;;;;5029410;28;20186;-84
2023/03/15 01:17:39;;;;;;;1.90;1.80;;;3.80;99.90;;;;;;5033087;28;20173;-84
2023/03/15 01:20:05;;;;;;;2.17;1.97;;;3.60;99.90;;;;;;5032202;28;20204;-83
2023/03/15 01:22:31;;;;;;;2.27;1.93;;;3.60;99.90;;;;;;5031858;28;20210;-88
2023/03/15 01:24:57;;;;;;;2.47;1.80;;;3.50;99.90;;;;;;5031764;28;20174;-85
2023/03/15 01:27:22;;;;;;;1.70;1.60;;;3.50;99.80;;;;;;5032429;28;20181;-84
2023/03/15 01:29:48;;;;;;;1.70;1.60;;;3.50;99.90;;;;;;5031752;28;20268;-85
2023/03/15 01:32:13;;;;;;;2.70;1.90;;;3.60;99.10;;;;;;5031271;28;20178;-84
2023/03/15 01:34:39;;;;;;;3.13;2.33;;;3.50;99.90;;;;;;5029959;28;20910;-85
2023/03/15 01:37:05;;;;;;;10.53;5.63;;;3.40;99.90;;;;;;5029338;28;20190;-84
2023/03/15 01:39:31;;;;;;;2.80;2.10;;;3.60;99.90;;;;;;5044205;28;20197;-84
2023/03/15 01:41:56;;;;;;;2.03;1.83;;;3.80;99.90;;;;;;5029253;28;20210;-84
2023/03/15 01:44:23;;;;;;;2.97;1.70;;;3.80;98.40;;;;;;5030376;28;20177;-85
2023/03/15 01:46:48;;;;;;;1.73;1.63;;;3.90;97.90;;;;;;5030222;28;20248;-84
2023/03/15 01:49:27;;;;;;;2.83;2.13;;;3.70;97.50;;;;;;5028630;28;20179;-85
2023/03/15 01:52:11;;;;;;;1.97;1.80;;;3.60;98.40;;;;;;5028999;28;20204;-85
2023/03/15 01:54:56;;;;;;;2.47;1.93;;;3.50;98.00;;;;;;5040659;28;20193;-85
2023/03/15 01:57:45;;;;;;;2.57;1.77;;;3.50;99.90;;;;;;5049661;28;20183;-86
2023/03/15 02:00:18;;;;;;;3.50;2.17;;;3.40;99.30;;;;;;5056861;28;20246;-82
2023/03/15 02:02:50;;;;;;;2.93;1.93;;;3.40;99.60;;;;;;5058157;28;20195;-85
2023/03/15 02:05:28;;;;;;;2.30;2.00;;;3.20;99.90;;;;;;5050042;28;20165;-85
2023/03/15 02:07:54;;;;;;;2.63;2.20;;;3.00;99.90;;;;;;5030874;28;20162;-85
2023/03/15 02:10:41;;;;;;;2.33;1.90;;;2.90;99.90;;;;;;5034023;28;20205;-85
2023/03/15 02:13:08;;;;;;;3.83;1.93;;;2.90;99.90;;;;;;5051365;28;20173;-85
2023/03/15 02:15:33;;;;;;;3.90;2.10;;;2.90;99.90;;;;;;5052803;28;20227;-84
2023/03/15 02:17:59;;;;;;;2.20;2.00;;;2.90;99.90;;;;;;5054025;28;20195;-85
2023/03/15 02:20:33;;;;;;;2.60;2.03;;;2.90;99.90;;;;;;5051785;28;20201;-82
2023/03/15 02:23:05;;;;;;;2.60;2.20;;;2.80;99.90;;;;;;5034050;28;20160;-85
2023/03/15 02:25:56;;;;;;;4.87;2.27;;;2.70;99.90;;;;;;5069183;28;20159;-84
2023/03/15 02:28:22;;;;;;;2.20;2.00;;;2.70;99.90;;;;;;5058011;28;20183;-84
2023/03/15 02:30:48;;;;;;;3.07;2.23;;;2.70;99.90;;;;;;5055436;28;20201;-85
2023/03/15 02:33:40;;;;;;;3.00;2.10;;;2.60;99.90;;;;;;5050106;28;20192;-84
2023/03/15 02:36:26;;;;;;;5.33;2.17;;;2.60;99.90;;;;;;5049758;28;20643;-84
2023/03/15 02:38:53;;;;;;;2.60;2.33;;;2.50;99.90;;;;;;5049091;28;20188;-84
2023/03/15 02:41:31;;;;;;;3.87;2.27;;;2.60;99.90;;;;;;5048728;28;20248;-84
2023/03/15 02:44:12;;;;;;;2.47;2.13;;;2.60;99.90;;;;;;5042869;28;20651;-84
2023/03/15 02:46:38;;;;;;;2.40;2.20;;;2.60;99.90;;;;;;5025520;28;20284;-83
2023/03/15 02:49:07;;;;;;;3.57;2.10;;;2.50;99.90;;;;;;5044747;28;20189;-85
2023/03/15 02:51:33;;;;;;;4.10;2.60;;;2.60;99.90;;;;;;5047138;28;20196;-84
2023/03/15 02:53:59;;;;;;;3.57;2.47;;;2.60;99.90;;;;;;5046917;28;20191;-85
2023/03/15 02:56:25;;;;;;;2.87;2.30;;;2.50;99.90;;;;;;5048366;28;20221;-85
2023/03/15 02:58:50;;;;;;;3.33;2.70;;;2.50;99.90;;;;;;5058564;28;20226;-83
2023/03/15 03:01:17;;;;;;;3.57;2.70;;;2.50;99.90;;;;;;5035717;28;20217;-84
2023/03/15 03:03:45;;;;;;;4.90;2.73;;;2.40;99.90;;;;;;5029463;28;20170;-85
2023/03/15 03:06:12;;;;;;;4.83;2.47;;;2.40;99.90;;;;;;5035911;28;20197;-84
2023/03/15 03:08:38;;;;;;;3.17;2.60;;;2.40;99.90;;;;;;5048304;28;20211;-83
2023/03/15 03:11:04;;;;;;;3.33;2.93;;;2.50;99.90;;;;;;5047843;28;20228;-83
2023/03/15 03:13:30;;;;;;;4.80;3.13;;;2.40;99.90;;;;;;5047900;28;20272;-84
2023/03/15 03:15:58;;;;;;;2.80;2.50;;;2.20;99.90;;;;;;5047257;28;20193;-84
2023/03/15 03:18:25;;;;;;;3.57;2.37;;;2.20;99.90;;;;;;5046680;28;20279;-83
2023/03/15 03:20:55;;;;;;;2.80;2.50;;;2.30;99.90;;;;;;5040947;28;20202;-83
2023/03/15 03:23:24;;;;;;;4.07;2.70;;;2.40;99.90;;;;;;5026592;28;20170;-84
2023/03/15 03:25:54;;;;;;;4.17;2.50;;;2.40;99.90;;;;;;5025038;28;20177;-83
2023/03/15 03:28:24;;;;;;;5.03;2.90;;;2.30;99.90;;;;;;5026895;28;20192;-83
2023/03/15 03:30:51;;;;;;;3.37;3.03;;;2.20;99.90;;;;;;5028434;28;20264;-84
2023/03/15 03:33:16;;;;;;;6.20;2.77;;;2.10;99.90;;;;;;5028327;28;20192;-84
2023/03/15 03:35:42;;;;;;;5.70;2.90;;;2.10;99.90;;;;;;5028154;28;20186;-84
2023/03/15 03:38:09;;;;;;;3.77;3.00;;;2.10;99.90;;;;;;5046579;28;20725;-85
2023/03/15 03:40:35;;;;;;;3.00;2.67;;;2.00;99.90;;;;;;5047054;28;20204;-83
2023/03/15 03:43:01;;;;;;;5.17;3.30;;;2.00;99.90;;;;;;5046447;28;20245;-83
2023/03/15 03:45:27;;;;;;;3.83;2.97;;;2.00;99.90;;;;;;5044539;28;20540;-84
2023/03/15 03:47:52;;;;;;;3.73;3.10;;;2.10;99.90;;;;;;5046791;28;20173;-83
2023/03/15 03:50:18;;;;;;;4.70;3.00;;;2.20;99.90;;;;;;5043989;28;20197;-83
2023/03/15 03:52:43;;;;;;;3.83;2.80;;;2.20;99.90;;;;;;5050231;28;20214;-84
2023/03/15 03:55:13;;;;;;;6.53;2.90;;;2.20;99.90;;;;;;5057799;28;20195;-84
2023/03/15 03:57:40;;;;;;;3.37;2.50;;;2.10;99.90;;;;;;5047863;28;20188;-84
2023/03/15 04:00:08;;;;;;;3.80;2.83;;;2.30;99.90;;;;;;5048618;28;20276;-84
2023/03/15 04:02:34;;;;;;;4.10;2.90;;;2.40;99.90;;;;;;5047925;28;20212;-84
2023/03/15 04:05:00;;;;;;;3.60;3.00;;;2.50;99.90;;;;;;5048691;28;20219;-83
2023/03/15 04:07:26;;;;;;;3.13;2.50;;;2.60;99.90;;;;;;5038697;28;20173;-86
2023/03/15 04:09:52;;;;;;;6.13;3.50;;;2.60;99.60;;;;;;5042473;28;20197;-83
2023/03/15 04:12:18;;;;;;;3.53;2.60;;;2.70;98.90;;;;;;5049626;28;20212;-85
2023/03/15 04:14:44;;;;;;;4.40;2.93;;;2.70;99.90;;;;;;5048132;28;20177;-86
2023/03/15 04:17:10;;;;;;;4.87;3.17;;;2.80;99.50;;;;;;5048877;28;20188;-85
2023/03/15 04:19:36;;;;;;;3.90;2.87;;;2.80;97.00;;;;;;5049869;28;20185;-88
2023/03/15 04:22:05;;;;;;;5.83;3.17;;;2.50;98.80;;;;;;5032825;28;20208;-85
2023/03/15 04:24:33;;;;;;;3.93;2.97;;;2.30;99.90;;;;;;5045313;28;20252;-87
2023/03/15 04:26:59;;;;;;;3.77;2.87;;;2.20;99.90;;;;;;5067029;28;20194;-87
2023/03/15 04:29:25;;;;;;;5.53;3.53;;;2.10;99.90;;;;;;5067025;28;20164;-85
2023/03/15 04:31:51;;;;;;;3.83;3.33;;;1.90;99.90;;;;;;5066043;28;20173;-85
2023/03/15 04:34:16;;;;;;;5.93;3.73;;;1.80;99.90;;;;;;5065250;28;20196;-85
2023/03/15 04:36:42;;;;;;;3.90;3.33;;;1.70;99.90;;;;;;5063995;28;20260;-84
2023/03/15 04:39:08;;;;;;;6.07;3.33;;;1.70;99.90;;;;;;5051770;28;20236;-85
2023/03/15 04:41:35;;;;;;;5.17;3.50;;;1.70;99.90;;;;;;5043338;28;20220;-85
2023/03/15 04:44:04;;;;;;;5.40;2.97;;;1.70;99.90;;;;;;5048828;28;20684;-86
2023/03/15 04:46:31;;;;;;;3.23;2.93;;;1.80;99.90;;;;;;5063960;28;20176;-86
2023/03/15 04:48:57;;;;;;;4.20;2.90;;;1.70;99.90;;;;;;5062269;28;20185;-86
2023/03/15 04:51:22;;;;;;;5.50;3.40;;;1.70;99.90;;;;;;5058472;28;20294;-86
2023/03/15 04:53:48;;;;;;;5.07;3.50;;;1.70;99.90;;;;;;5044407;28;20189;-86
2023/03/15 04:56:14;;;;;;;5.60;3.57;;;1.70;99.90;;;;;;5045335;28;20188;-86
2023/03/15 04:58:39;;;;;;;7.93;3.83;;;1.70;99.90;;;;;;5044528;28;20180;-88
2023/03/15 05:01:05;;;;;;;6.47;3.67;;;1.70;99.90;;;;;;5045804;28;20232;-86
2023/03/15 05:03:30;;;;;;;6.00;3.67;;;1.70;99.90;;;;;;5064114;28;20199;-86
2023/03/15 05:05:56;;;;;;;7.53;3.83;;;1.70;99.90;;;;;;5048476;28;20181;-86
2023/03/15 05:08:22;;;;;;;6.97;3.70;;;1.70;99.90;;;;;;5028153;28;20249;-86
2023/03/15 05:10:47;;;;;;;4.67;3.53;;;1.70;99.90;;;;;;5022528;28;20311;-87
2023/03/15 05:13:13;;;;;;;4.30;3.10;;;1.60;99.90;;;;;;5021707;28;20217;-87
2023/03/15 05:15:39;;;;;;;6.07;3.17;;;1.70;99.90;;;;;;5020721;28;20181;-86
2023/03/15 05:18:05;;;;;;;5.27;3.60;;;1.70;99.90;;;;;;5020067;28;20188;-86
2023/03/15 05:20:30;;;;;;;3.60;2.93;;;1.70;99.90;;;;;;5022564;28;20229;-86
2023/03/15 05:22:57;;;;;;;7.43;3.30;;;1.90;99.90;;;;;;5021404;28;20636;-86
2023/03/15 05:25:23;;;;;;;4.67;3.37;;;1.90;99.90;;;;;;5059052;28;20164;-86
2023/03/15 05:27:49;;;;;;;4.13;3.30;;;1.80;99.90;;;;;;5079565;28;20179;-85
2023/03/15 05:30:15;;;;;;;5.17;3.30;;;1.90;99.90;;;;;;5079232;28;20223;-86
2023/03/15 05:32:43;;;;;;;4.53;3.33;;;1.90;99.90;;;;;;5075824;28;20207;-86
2023/03/15 05:35:10;;;;;;;4.17;3.23;;;1.90;99.90;;;;;;5067926;28;20177;-86
2023/03/15 05:37:37;;;;;;;2.70;2.50;;;1.90;99.90;;;;;;5067241;28;20179;-86
2023/03/15 05:40:06;;;;;;;3.90;3.43;;;1.90;99.90;;;;;;5066720;28;20204;-87
2023/03/15 05:42:33;;;;;;;3.50;2.93;;;2.00;99.90;;;;;;5066367;28;20220;-85
2023/03/15 05:44:58;;;;;;;6.27;3.10;;;2.00;99.90;;;;;;5066217;28;20207;-85
2023/03/15 05:47:24;;;;;;;5.20;3.13;;;1.80;99.90;;;;;;5059394;28;20661;-86
2023/03/15 05:49:51;;;;;;;5.83;3.20;;;1.70;99.90;;;;;;5036687;28;20201;-87
2023/03/15 05:52:16;;;;;;;3.23;2.93;;;1.60;99.90;;;;;;5042479;28;20268;-85
2023/03/15 05:54:42;;;;;;;4.93;3.30;;;1.70;99.90;;;;;;5046737;28;20181;-85
2023/03/15 05:57:08;;;;;;;5.50;3.47;;;2.00;99.90;;;;;;5046659;28;20205;-83
2023/03/15 05:59:34;;;;;;;5.00;3.77;;;2.20;99.90;;;;;;5045692;28;20575;-85
2023/03/15 06:01:59;;;;;;;4.73;3.47;;;2.10;99.80;;;;;;5045865;28;20235;-85
2023/03/15 06:04:25;;;;;;;5.13;3.60;;;2.10;99.90;;;;;;5048916;28;20180;-84
2023/03/15 06:06:51;;;;;;;5.87;3.40;;;2.10;99.90;;;;;;5048591;28;20181;-85
2023/03/15 06:09:17;;;;;;;5.60;3.67;;;2.10;99.90;;;;;;5047827;28;20409;-85
2023/03/15 06:11:43;;;;;;;8.23;3.97;;;2.00;99.90;;;;;;5048103;28;20195;-84
2023/03/15 06:14:08;;;;;;;4.67;3.93;;;1.90;99.90;;;;;;5048414;28;20547;-85
2023/03/15 06:16:34;;;;;;;6.57;3.77;;;1.70;99.90;;;;;;5048617;28;20181;-84
2023/03/15 06:18:59;;;;;;;5.47;3.90;;;1.90;99.90;;;;;;5048452;28;20686;-85
2023/03/15 06:21:25;;;;;;;4.10;3.40;;;2.10;99.90;;;;;;5037358;28;20218;-84
2023/03/15 06:23:51;;;;;;;4.17;3.47;;;2.00;99.90;;;;;;5042933;28;20212;-84
2023/03/15 06:26:18;;;;;;;3.97;3.37;;;2.10;99.90;;;;;;5066572;28;20184;-86
2023/03/15 06:28:44;;;;;;;5.77;3.93;;;2.10;99.90;;;;;;5066910;28;20177;-87
2023/03/15 06:31:12;;;;;;;5.33;3.70;;;2.10;99.90;;;;;;5051276;28;20232;-85
2023/03/15 06:33:38;;;;;;;4.67;3.80;;;2.20;99.90;;;;;;5039186;28;20248;-86
2023/03/15 06:36:04;;;;;;;6.17;3.70;;;2.20;99.90;;;;;;5044977;28;20185;-86
2023/03/15 06:38:30;;;;;;;7.33;3.50;;;2.10;99.90;;;;;;5045585;28;20215;-86
2023/03/15 06:41:00;;;;;;;3.50;3.20;;;2.10;99.90;;;;;;5044517;28;20247;-85
2023/03/15 06:43:26;;;;;;;5.13;3.30;;;2.00;99.90;;;;;;5063346;28;20178;-85
2023/03/15 06:45:52;;;;;;;6.93;3.37;;;2.00;99.90;;;;;;5047454;28;20261;-86
2023/03/15 06:48:18;;;;;;;6.90;3.67;;;2.10;99.90;;;;;;5046515;28;20184;-85
2023/03/15 06:50:44;;;;;;;3.20;2.90;;;2.20;99.90;;;;;;5026543;28;20216;-85
2023/03/15 06:53:09;;;;;;;7.63;3.30;;;2.20;99.90;;;;;;5027029;28;20186;-84
2023/03/15 06:55:35;;;;;;;5.00;3.50;;;2.40;99.90;;;;;;5028172;28;20184;-84
2023/03/15 06:58:01;;;;;;;8.23;3.63;;;2.40;99.70;;;;;;5028646;28;20184;-85
2023/03/15 07:00:27;;;;;;;3.93;3.33;;;2.40;99.90;;;;;;5028365;28;20217;-85
2023/03/15 07:02:52;;;;;;;5.97;3.50;;;2.40;99.90;;;;;;5029318;28;20182;-84
2023/03/15 07:05:18;;;;;;;6.13;3.77;;;2.40;99.90;;;;;;5030316;28;20188;-84
2023/03/15 07:07:44;;;;;;;9.20;4.10;;;2.40;99.90;;;;;;5049342;28;20177;-84
2023/03/15 07:10:10;;;;;;;4.97;3.70;;;2.60;96.50;;;;;;5049984;28;20200;-84
2023/03/15 07:12:35;;;;;;;6.23;3.77;;;2.70;96.20;;;;;;5048207;28;20200;-83
2023/03/15 07:15:01;;;;;;;4.90;3.43;;;2.70;97.90;;;;;;5048081;28;20181;-84
2023/03/15 07:17:27;;;;;;;7.73;4.10;;;2.80;96.30;;;;;;5042473;28;20200;-83
2023/03/15 07:19:53;;;;;;;6.20;3.77;;;2.80;97.60;;;;;;5039402;28;20205;-83
2023/03/15 07:22:21;;;;;;;5.23;4.10;;;2.70;97.50;;;;;;5029368;28;20294;-84
2023/03/15 07:24:46;;;;;;;8.10;4.40;;;2.70;97.70;;;;;;5045828;28;20876;-83
2023/03/15 07:27:13;;;;;;;6.50;4.17;;;2.80;98.20;;;;;;5066905;28;20176;-85
2023/03/15 07:29:38;;;;;;;5.23;3.57;;;2.80;97.50;;;;;;5066894;28;20268;-85
2023/03/15 07:32:04;;;;;;;6.43;3.80;;;3.10;94.50;;;;;;5065767;28;20168;-85
2023/03/15 07:34:30;;;;;;;7.43;4.00;;;3.30;94.00;;;;;;5044656;28;20182;-83
2023/03/15 07:36:55;;;;;;;4.70;3.40;;;3.30;94.70;;;;;;5035553;28;20212;-83
2023/03/15 07:39:22;;;;;;;8.13;3.80;;;3.50;92.80;;;;;;5056795;28;20185;-85
2023/03/15 07:41:48;;;;;;;5.73;3.30;;;3.50;91.60;;;;;;5052157;28;20201;-85
2023/03/15 07:44:14;;;;;;;8.40;3.60;;;3.50;90.90;;;;;;5048592;28;20273;-84
2023/03/15 07:46:39;;;;;;;6.20;4.17;;;3.60;89.50;;;;;;5047528;28;20643;-82
2023/03/15 07:49:05;;;;;;;6.00;3.90;;;3.50;91.60;;;;;;5038268;28;20201;-83
2023/03/15 07:51:31;;;;;;;4.87;3.77;;;3.40;91.80;;;;;;5027625;28;20210;-84
2023/03/15 07:53:57;;;;;;;5.37;3.57;;;3.40;90.90;;;;;;5027919;28;20212;-85
2023/03/15 07:56:22;;;;;;;3.40;3.10;;;3.50;88.40;;;;;;5028327;28;20212;-84
2023/03/15 07:58:48;;;;;;;4.50;3.43;;;3.50;88.00;;;;;;5027341;28;20201;-83
2023/03/15 08:01:14;;;;;;;4.23;3.63;;;3.50;91.10;;;;;;5028895;28;20244;-83
2023/03/15 08:03:40;;;;;;;4.20;3.17;;;3.50;89.90;;;;;;5028258;28;20181;-84
2023/03/15 08:06:06;;;;;;;7.07;3.80;;;3.70;89.10;;;;;;5027932;28;20254;-84
2023/03/15 08:08:32;;;;;;;8.83;3.80;;;3.70;87.10;;;;;;5028841;28;20174;-83
2023/03/15 08:10:58;;;;;;;3.83;3.20;;;3.70;89.10;;;;;;5028214;28;20236;-83
2023/03/15 08:13:24;;;;;;;4.60;3.47;;;3.90;86.20;;;;;;5027339;28;20200;-86
2023/03/15 08:15:50;;;;;;;7.40;3.43;;;3.90;89.00;;;;;;5042097;28;20177;-85
2023/03/15 08:18:16;;;;;;;3.87;3.30;;;4.00;86.70;;;;;;5047947;28;20173;-85
2023/03/15 08:20:42;;;;;;;4.43;3.27;;;4.00;88.10;;;;;;5043050;28;20205;-84
2023/03/15 08:23:08;;;;;;;5.80;3.20;;;4.20;85.20;;;;;;5029611;28;20185;-84
2023/03/15 08:25:35;;;;;;;4.87;3.03;;;4.30;82.20;;;;;;5063015;28;20413;-85
2023/03/15 08:28:01;;;;;;;5.73;3.10;;;4.30;82.20;;;;;;5068437;28;20165;-84
2023/03/15 08:30:27;;;;;;;5.87;3.20;;;4.20;82.90;;;;;;5038762;28;20209;-85
2023/03/15 08:32:52;;;;;;;6.07;2.83;;;4.20;85.20;;;;;;5042843;28;20181;-85
2023/03/15 08:35:20;;;;;;;6.30;2.90;;;4.40;83.10;;;;;;5053841;28;20188;-85
2023/03/15 08:37:46;;;;;;;8.03;3.07;;;4.50;79.90;;;;;;5052822;28;20212;-84
2023/03/15 08:40:17;;;;;;;6.37;3.17;;;4.60;78.70;;;;;;5045978;28;20251;-85
2023/03/15 08:42:44;;;;;;;4.30;2.80;;;4.60;79.70;;;;;;5045522;28;20211;-84
2023/03/15 08:45:10;;;;;;;3.93;2.87;;;4.70;78.50;;;;;;5030910;28;20189;-85
2023/03/15 08:47:36;;;;;;;6.87;2.97;;;5.10;78.80;;;;;;5027023;28;20185;-84
2023/03/15 08:50:08;;;;;;;3.57;2.83;;;5.20;78.80;;;;;;5026471;28;20198;-83
2023/03/15 08:52:34;;;;;;;3.67;2.90;;;5.50;76.70;;;;;;5026691;28;20185;-84
2023/03/15 08:55:00;;;;;;;8.57;2.87;;;5.70;78.10;;;;;;5027388;28;20177;-85
2023/03/15 08:57:25;;;;;;;4.30;2.73;;;5.90;72.10;;;;;;5026854;28;20208;-86
2023/03/15 08:59:56;;;;;;;2.97;2.33;;;5.80;72.50;;;;;;5028435;28;20217;-85
2023/03/15 09:02:22;;;;;;;4.67;2.87;;;5.70;75.80;;;;;;5046455;28;20196;-85
2023/03/15 09:04:48;;;;;;;6.90;2.80;;;5.70;75.80;;;;;;5048998;28;20594;-86
2023/03/15 09:07:14;;;;;;;3.47;2.60;;;5.80;70.90;;;;;;5049965;28;20185;-86
2023/03/15 09:09:40;;;;;;;3.63;2.67;;;5.80;71.10;;;;;;5049788;28;20288;-83
2023/03/15 09:12:06;;;;;;;13.53;3.67;;;5.70;74.10;;;;;;5049328;28;20203;-85
2023/03/15 09:14:32;;;;;;;4.63;2.57;;;5.80;72.70;;;;;;5042242;28;20181;-84
2023/03/15 09:16:58;;;;;;;5.63;3.17;;;5.90;74.80;;;;;;5049447;28;20246;-85
2023/03/15 09:19:23;;;;;;;6.63;2.97;;;6.10;70.30;;;;;;5049764;28;20344;-84
2023/03/15 09:21:50;;;;;;;4.17;2.20;;;6.00;70.90;;;;;;5034823;28;20253;-84
2023/03/15 09:24:15;;;;;;;4.30;2.40;;;5.70;71.10;;;;;;5040027;28;20168;-85
2023/03/15 09:26:41;;;;;;;3.63;2.30;;;5.70;73.70;;;;;;5068268;28;20240;-85
2023/03/15 09:29:08;;;;;;;6.40;2.50;;;6.00;69.50;;;;;;5053689;28;20185;-86
2023/03/15 09:31:34;;;;;;;6.20;2.57;;;6.00;68.80;;;;;;5060540;28;20208;-86
2023/03/15 09:33:59;;;;;;;2.97;2.50;;;6.20;71.70;;;;;;5057923;28;20200;-86
2023/03/15 09:36:25;;;;;;;6.07;2.80;;;6.10;71.30;;;;;;5049200;28;20749;-86
2023/03/15 09:38:51;;;;;;;3.80;2.33;;;6.40;71.10;;;;;;5049789;28;20220;-84
2023/03/15 09:41:41;;;;;;;2.70;2.10;;;6.60;69.70;;;;;;5049516;28;20201;-85
2023/03/15 09:44:44;;;;;;;3.07;2.27;;;6.70;68.60;;;;;;5032351;28;20213;-86
2023/03/15 09:47:16;;;;;;;4.40;2.57;;;7.10;68.70;;;;;;5027455;28;20201;-86
2023/03/15 09:50:10;;;;;;;3.87;2.33;;;7.20;62.30;;;;;;5029095;28;20201;-86
2023/03/15 09:52:44;;;;;;;2.57;2.00;;;7.00;62.50;;;;;;5036201;28;20192;-86
2023/03/15 09:55:24;;;;;;;3.37;2.00;;;7.00;64.20;;;;;;5037243;28;20225;-86
2023/03/15 09:57:57;;;;;;;4.67;2.70;;;6.90;66.80;;;;;;5041362;28;20183;-83
2023/03/15 10:00:25;;;;;;;2.97;2.20;;;7.20;66.80;;;;;;5038504;28;20259;-86
2023/03/15 10:02:59;;;;;;;3.37;2.10;;;7.50;63.90;;;;;;5029089;28;20296;-84
2023/03/15 10:05:41;;;;;;;3.47;2.30;;;7.30;64.00;;;;;;5029531;28;20182;-85
2023/03/15 10:08:16;;;;;;;3.73;2.23;;;7.70;60.10;;;;;;5028086;28;20169;-85
2023/03/15 10:11:06;;;;;;;7.97;2.73;;;7.80;60.80;;;;;;5028913;28;20228;-84
2023/03/15 10:13:51;;;;;;;4.40;2.40;;;8.20;58.00;;;;;;5029261;28;20170;-86
2023/03/15 10:16:41;;;;;;;3.33;2.20;;;8.30;56.90;;;;;;5043629;28;20181;-86
2023/03/15 10:19:14;;;;;;;5.90;2.63;;;8.50;58.60;;;;;;5047476;28;20188;-86
2023/03/15 10:21:49;;;;;;;2.27;1.83;;;8.30;59.90;;;;;;5036568;28;20205;-84
2023/03/15 10:24:36;;;;;;;2.60;2.40;;;8.20;55.30;;;;;;5028598;28;20162;-86
2023/03/15 10:27:14;;;;;;;2.53;2.07;;;8.30;59.70;;;;;;5049167;28;20207;-85
2023/03/15 10:29:40;;;;;;;2.23;1.90;;;8.20;53.30;;;;;;5046301;28;20280;-86
2023/03/15 10:32:17;;;;;;;3.77;1.93;;;8.00;55.00;;;;;;5050333;28;20185;-85
2023/03/15 10:34:49;;;;;;;3.43;1.67;;;7.70;50.50;;;;;;5049148;28;20343;-85
2023/03/15 10:37:15;;;;;;;3.13;1.80;;;7.50;49.60;;;;;;5049388;28;20161;-85
2023/03/15 10:39:45;;;;;;;2.27;1.80;;;7.30;49.50;;;;;;5037530;28;20284;-84
2023/03/15 10:42:23;;;;;;;3.50;1.73;;;7.50;53.40;;;;;;5027512;28;20197;-85
2023/03/15 10:44:48;;;;;;;3.70;2.07;;;7.60;54.10;;;;;;5027391;28;20184;-85
2023/03/15 10:47:20;;;;;;;4.10;2.10;;;7.50;52.60;;;;;;5027998;28;20205;-86
2023/03/15 10:49:46;;;;;;;3.33;1.80;;;7.50;53.90;;;;;;5028206;28;20201;-85
2023/03/15 10:52:33;;;;;;;1.50;1.40;;;7.50;53.50;;;;;;5028297;28;20204;-86
2023/03/15 10:55:01;;;;;;;5.13;2.03;;;7.50;52.70;;;;;;5028496;28;20181;-85
2023/03/15 10:57:33;;;;;;;5.80;2.37;;;7.60;53.30;;;;;;5028450;28;20282;-86
2023/03/15 11:00:05;;;;;;;2.10;1.90;;;7.40;53.70;;;;;;5029328;28;20221;-85
2023/03/15 11:02:31;;;;;;;2.33;1.90;;;7.30;54.20;;;;;;5029787;28;20201;-85
2023/03/15 11:05:15;;;;;;;2.20;2.00;;;7.30;56.60;;;;;;5028588;28;20196;-87
2023/03/15 11:07:54;;;;;;;3.17;1.80;;;7.20;56.50;;;;;;5042754;28;20181;-85
2023/03/15 11:10:24;;;;;;;1.80;1.70;;;7.20;58.50;;;;;;5026046;28;20275;-85
2023/03/15 11:12:49;;;;;;;2.30;2.10;;;7.00;61.40;;;;;;5026747;28;20212;-85
2023/03/15 11:15:18;;;;;;;2.50;1.70;;;6.90;65.70;;;;;;5026238;28;20190;-87
2023/03/15 11:17:47;;;;;;;5.07;1.97;;;6.80;69.90;;;;;;5025051;28;20196;-86
2023/03/15 11:20:28;;;;;;;3.20;1.80;;;6.70;69.60;;;;;;5054823;28;20204;-87
2023/03/15 11:22:55;;;;;;;2.03;1.83;;;6.60;71.20;;;;;;5044141;28;20630;-88
2023/03/15 11:25:27;;;;;;;4.17;2.00;;;6.60;71.00;;;;;;5048620;28;20252;-87
2023/03/15 11:27:53;;;;;;;2.27;1.93;;;6.70;71.80;;;;;;5031541;28;20291;-87
2023/03/15 11:30:27;;;;;;;3.63;2.07;;;6.80;71.20;;;;;;5027303;28;20201;-86
2023/03/15 11:32:54;;;;;;;2.00;1.80;;;6.70;71.00;;;;;;5045452;28;20181;-86
2023/03/15 11:35:32;;;;;;;2.10;1.90;;;6.70;72.40;;;;;;5046836;28;20208;-84
2023/03/15 11:38:04;;;;;;;2.10;1.67;;;6.40;77.10;;;;;;5048944;28;20181;-87
2023/03/15 11:40:35;;;;;;;4.70;1.93;;;6.20;82.90;;;;;;5040217;28;20201;-84
2023/03/15 11:43:12;;;;;;;1.70;1.60;;;5.90;89.00;;;;;;5029069;28;20186;-85
2023/03/15 11:45:48;;;;;;;1.80;1.70;;;5.70;91.10;;;;;;5027900;28;20185;-85
2023/03/15 11:48:31;;;;;;;2.27;1.47;;;5.60;90.50;;;;;;5028588;28;20166;-85
2023/03/15 11:50:58;;;;;;;3.73;1.63;;;5.50;93.10;;;;;;5029023;28;20232;-85
2023/03/15 11:53:34;;;;;;;2.93;1.63;;;5.30;95.30;;;;;;5030098;28;20188;-85
2023/03/15 11:56:28;;;;;;;2.57;1.60;;;5.40;93.60;;;;;;5031021;28;20184;-86
2023/03/15 11:59:10;;;;;;;1.47;1.37;;;5.70;93.60;;;;;;5029971;28;20188;-85
2023/03/15 12:01:36;;;;;;;3.43;1.73;;;5.80;94.60;;;;;;5044759;28;20209;-85
2023/03/15 12:04:34;;;;;;;1.60;1.50;;;6.00;89.20;;;;;;5048544;28;20183;-86
2023/03/15 12:07:24;;;;;;;1.77;1.40;;;6.10;88.70;;;;;;5035175;28;20249;-85
2023/03/15 12:09:54;;;;;;;2.70;1.87;;;6.10;88.80;;;;;;5048120;28;20215;-85
2023/03/15 12:12:25;;;;;;;1.57;1.40;;;6.20;90.70;;;;;;5031772;28;20185;-85
2023/03/15 12:15:18;;;;;;;2.30;1.80;;;6.30;88.20;;;;;;5027650;28;20679;-85
2023/03/15 12:17:58;;;;;;;2.30;2.07;;;6.30;87.60;;;;;;5028182;28;20174;-86
2023/03/15 12:20:38;;;;;;;2.40;2.20;;;6.70;86.40;;;;;;5046680;28;20210;-84
2023/03/15 12:23:12;;;;;;;2.20;2.00;;;7.00;86.40;;;;;;5048145;28;20215;-86
2023/03/15 12:25:54;;;;;;;2.23;2.00;;;7.30;84.80;;;;;;5063769;28;20172;-88
2023/03/15 12:28:27;;;;;;;2.37;1.90;;;7.40;80.60;;;;;;5035810;28;20181;-86
2023/03/15 12:31:00;;;;;;;5.67;2.97;;;7.50;85.20;;;;;;5029444;28;20193;-86
2023/03/15 12:33:27;;;;;;;3.80;2.60;;;7.60;78.80;;;;;;5037241;28;20170;-86
2023/03/15 12:36:00;;;;;;;4.33;2.80;;;7.40;78.20;;;;;;5052234;28;20207;-86
2023/03/15 12:38:35;;;;;;;4.80;2.60;;;7.70;78.20;;;;;;5050858;28;20185;-85
2023/03/15 12:41:06;;;;;;;3.00;2.63;;;7.80;79.20;;;;;;5052798;28;20238;-88
2023/03/15 12:43:44;;;;;;;3.23;2.93;;;7.60;77.50;;;;;;5049646;28;20166;-87
2023/03/15 12:46:38;;;;;;;4.07;2.40;;;7.60;79.50;;;;;;5048750;28;20240;-87
2023/03/15 12:49:05;;;;;;;3.00;2.70;;;7.60;78.10;;;;;;5048583;28;20261;-87
2023/03/15 12:52:00;;;;;;;2.77;2.53;;;8.00;75.90;;;;;;5049568;28;20208;-86
2023/03/15 12:54:36;;;;;;;5.07;3.60;;;8.00;75.90;;;;;;5046897;28;20177;-86
2023/03/15 12:57:04;;;;;;;6.07;3.17;;;8.80;74.40;;;;;;5045741;28;20173;-87
2023/03/15 12:59:59;;;;;;;5.10;3.13;;;9.60;71.90;;;;;;5044734;28;20200;-87
2023/03/15 13:02:31;;;;;;;4.20;2.73;;;10.40;66.70;;;;;;5032447;28;20209;-87
2023/03/15 13:05:24;;;;;;;3.20;2.50;;;10.10;64.30;;;;;;5045420;28;20165;-86
2023/03/15 13:07:53;;;;;;;3.90;2.60;;;10.20;66.20;;;;;;5028427;28;20184;-87
2023/03/15 13:10:29;;;;;;;2.53;2.33;;;10.70;63.40;;;;;;5041843;28;20208;-88